AUA41 LOWW-KIAD
Flight info
| Callsign | AUA41 |
|---|---|
| Flight time | N/A |
| Altitude | 36000 |
| Route | BUWUT1C BUWUT DCT DITIS DCT VARIK DCT KATCE DCT TOPPA DCT AGPED DCT TLA DCT GINGA DCT GOMUP NATB 59N030W/M078F380 NATB 5730N05000W/M078F400 NATB ENNSO N772A YBC DCT KJOHN DCT ALB DCT ATWAN DCT FILGA DCT KEAVR DCT BOTLS DCT JETTZ DCT SARAA DCT LRP DCT JOANE DCT DELRO DCT LIRCH DCT BINNS DCT HYPER DCT SIGBE DCT MOWAT DCT HUSEL DCT YACKK DCT TICON DCT |
| Aircraft | A343/H-SDE2E3FGHIJ4J5M1RWXY/LB1D1 |
Departure
| Time | 2026-04-25 09:41 |
|---|---|
| Airport | Vienna International Airport (LOWW) |
Arrival
| Time | N/A |
|---|---|
| Airport | Washington Dulles International Airport (KIAD) |
| Time | Latitude | Longitude | Altitude | Speed | Heading |
|---|---|---|---|---|---|
| 2026-04-25 09:09 | 48.11818 | 16.57047 | 628 ft | 0 kts | 206° |
| 2026-04-25 09:31 | 48.11822 | 16.57049 | 613 ft | 3 kts | 205° |
| 2026-04-25 09:32 | 48.11847 | 16.57064 | 627 ft | 4 kts | 194° |
| 2026-04-25 09:32 | 48.11873 | 16.57070 | 627 ft | 4 kts | 178° |
| 2026-04-25 09:32 | 48.11898 | 16.57063 | 627 ft | 4 kts | 146° |
| 2026-04-25 09:32 | 48.11909 | 16.57049 | 622 ft | 2 kts | 116° |
| 2026-04-25 09:35 | 48.11906 | 16.57057 | 624 ft | 5 kts | 116° |
| 2026-04-25 09:35 | 48.11869 | 16.57165 | 627 ft | 20 kts | 116° |
| 2026-04-25 09:35 | 48.11811 | 16.57368 | 627 ft | 21 kts | 97° |
| 2026-04-25 09:36 | 48.11726 | 16.57506 | 623 ft | 24 kts | 163° |
| 2026-04-25 09:36 | 48.11538 | 16.57584 | 615 ft | 28 kts | 165° |
| 2026-04-25 09:36 | 48.11354 | 16.57662 | 625 ft | 27 kts | 163° |
| 2026-04-25 09:36 | 48.11173 | 16.57739 | 622 ft | 27 kts | 163° |
| 2026-04-25 09:37 | 48.10983 | 16.57822 | 624 ft | 28 kts | 164° |
| 2026-04-25 09:37 | 48.10800 | 16.57892 | 624 ft | 27 kts | 167° |
| 2026-04-25 09:37 | 48.10624 | 16.57966 | 621 ft | 26 kts | 161° |
| 2026-04-25 09:37 | 48.10455 | 16.58046 | 618 ft | 26 kts | 165° |
| 2026-04-25 09:38 | 48.10261 | 16.58124 | 626 ft | 30 kts | 164° |
| 2026-04-25 09:38 | 48.10068 | 16.58206 | 624 ft | 28 kts | 163° |
| 2026-04-25 09:38 | 48.09880 | 16.58287 | 627 ft | 29 kts | 164° |
| 2026-04-25 09:38 | 48.09686 | 16.58370 | 623 ft | 29 kts | 164° |
| 2026-04-25 09:39 | 48.09499 | 16.58448 | 625 ft | 28 kts | 165° |
| 2026-04-25 09:39 | 48.09306 | 16.58528 | 625 ft | 28 kts | 165° |
| 2026-04-25 09:39 | 48.09120 | 16.58607 | 624 ft | 28 kts | 164° |
| 2026-04-25 09:40 | 48.08790 | 16.58838 | 624 ft | 23 kts | 101° |
| 2026-04-25 09:40 | 48.08851 | 16.59069 | 627 ft | 26 kts | 39° |
| 2026-04-25 09:40 | 48.09015 | 16.59070 | 625 ft | 26 kts | 345° |
| 2026-04-25 09:40 | 48.09326 | 16.58939 | 621 ft | 69 kts | 344° |
| 2026-04-25 09:41 | 48.09929 | 16.58681 | 624 ft | 110 kts | 344° |
| 2026-04-25 09:41 | 48.10781 | 16.58323 | 622 ft | 143 kts | 344° |
| 2026-04-25 09:41 | 48.11811 | 16.57897 | 807 ft | 155 kts | 345° |
| 2026-04-25 09:41 | 48.12850 | 16.57493 | 1284 ft | 156 kts | 344° |
| 2026-04-25 09:42 | 48.13943 | 16.57032 | 1543 ft | 167 kts | 341° |
| 2026-04-25 09:42 | 48.15014 | 16.56275 | 1877 ft | 179 kts | 337° |
| 2026-04-25 09:42 | 48.16308 | 16.56409 | 2067 ft | 204 kts | 26° |
| 2026-04-25 09:42 | 48.17340 | 16.58005 | 2375 ft | 229 kts | 54° |
| 2026-04-25 09:43 | 48.18342 | 16.60012 | 2700 ft | 250 kts | 46° |
| 2026-04-25 09:43 | 48.19585 | 16.61901 | 3245 ft | 260 kts | 37° |
| 2026-04-25 09:43 | 48.21026 | 16.63584 | 3872 ft | 265 kts | 29° |
| 2026-04-25 09:43 | 48.22587 | 16.65027 | 4642 ft | 263 kts | 18° |
| 2026-04-25 09:44 | 48.24320 | 16.65611 | 5391 ft | 252 kts | 353° |
| 2026-04-25 09:44 | 48.25990 | 16.65008 | 6155 ft | 246 kts | 332° |
| 2026-04-25 09:44 | 48.27499 | 16.63781 | 6879 ft | 248 kts | 328° |
| 2026-04-25 09:44 | 48.28995 | 16.62440 | 7525 ft | 253 kts | 328° |
| 2026-04-25 09:45 | 48.30519 | 16.61071 | 8190 ft | 257 kts | 328° |
| 2026-04-25 09:45 | 48.32069 | 16.59689 | 8867 ft | 261 kts | 329° |
| 2026-04-25 09:45 | 48.33644 | 16.58289 | 9535 ft | 265 kts | 329° |
| 2026-04-25 09:45 | 48.35246 | 16.56869 | 10188 ft | 269 kts | 329° |
| 2026-04-25 09:46 | 48.36898 | 16.55402 | 10519 ft | 284 kts | 329° |
| 2026-04-25 09:46 | 48.38623 | 16.53871 | 10766 ft | 300 kts | 329° |
| 2026-04-25 09:46 | 48.40466 | 16.52233 | 11019 ft | 315 kts | 328° |
| 2026-04-25 09:46 | 48.42404 | 16.50510 | 11284 ft | 330 kts | 328° |
| 2026-04-25 09:47 | 48.44410 | 16.48699 | 11640 ft | 341 kts | 326° |
| 2026-04-25 09:47 | 48.46230 | 16.46378 | 12149 ft | 347 kts | 310° |
| 2026-04-25 09:47 | 48.47537 | 16.43306 | 12753 ft | 351 kts | 298° |
| 2026-04-25 09:47 | 48.48633 | 16.39999 | 13357 ft | 354 kts | 296° |
| 2026-04-25 09:48 | 48.49716 | 16.36649 | 13956 ft | 358 kts | 296° |
| 2026-04-25 09:48 | 48.50811 | 16.33272 | 14521 ft | 360 kts | 296° |
| 2026-04-25 09:48 | 48.51916 | 16.29874 | 15098 ft | 362 kts | 296° |
| 2026-04-25 09:48 | 48.53029 | 16.26458 | 15659 ft | 364 kts | 296° |
| 2026-04-25 09:49 | 48.54149 | 16.23023 | 16198 ft | 366 kts | 296° |
| 2026-04-25 09:49 | 48.55277 | 16.19561 | 16787 ft | 368 kts | 296° |
| 2026-04-25 09:49 | 48.56407 | 16.16093 | 17373 ft | 369 kts | 296° |
| 2026-04-25 09:49 | 48.57545 | 16.12596 | 17925 ft | 372 kts | 296° |
| 2026-04-25 09:50 | 48.58623 | 16.09037 | 18460 ft | 374 kts | 293° |
| 2026-04-25 09:50 | 48.59639 | 16.05413 | 18922 ft | 376 kts | 292° |
| 2026-04-25 09:50 | 48.60661 | 16.01764 | 19361 ft | 379 kts | 292° |
| 2026-04-25 09:50 | 48.61700 | 15.98084 | 19813 ft | 382 kts | 293° |
| 2026-04-25 09:51 | 48.62749 | 15.94386 | 20269 ft | 384 kts | 293° |
| 2026-04-25 09:51 | 48.63803 | 15.90675 | 20715 ft | 385 kts | 293° |
| 2026-04-25 09:51 | 48.64865 | 15.86941 | 21206 ft | 386 kts | 293° |
| 2026-04-25 09:51 | 48.65926 | 15.83205 | 21693 ft | 387 kts | 293° |
| 2026-04-25 09:52 | 48.66992 | 15.79449 | 22126 ft | 389 kts | 292° |
| 2026-04-25 09:52 | 48.68059 | 15.75684 | 22533 ft | 391 kts | 292° |
| 2026-04-25 09:52 | 48.69132 | 15.71892 | 22951 ft | 393 kts | 292° |
| 2026-04-25 09:52 | 48.70211 | 15.68075 | 23356 ft | 395 kts | 292° |
| 2026-04-25 09:53 | 48.71277 | 15.64296 | 23729 ft | 397 kts | 292° |
| 2026-04-25 09:53 | 48.72362 | 15.60444 | 24052 ft | 398 kts | 292° |
| 2026-04-25 09:53 | 48.73453 | 15.56579 | 24376 ft | 400 kts | 292° |
| 2026-04-25 09:53 | 48.74544 | 15.52695 | 24701 ft | 402 kts | 292° |
| 2026-04-25 09:54 | 48.75637 | 15.48790 | 25031 ft | 403 kts | 292° |
| 2026-04-25 09:54 | 48.76735 | 15.44865 | 25348 ft | 405 kts | 292° |
| 2026-04-25 09:54 | 48.77836 | 15.40924 | 25629 ft | 407 kts | 291° |
| 2026-04-25 09:54 | 48.78941 | 15.36960 | 25912 ft | 409 kts | 291° |
| 2026-04-25 09:55 | 48.80087 | 15.33003 | 26230 ft | 411 kts | 295° |
| 2026-04-25 09:55 | 48.81513 | 15.29229 | 26521 ft | 414 kts | 301° |
| 2026-04-25 09:55 | 48.83124 | 15.25594 | 26806 ft | 416 kts | 302° |
| 2026-04-25 09:55 | 48.84805 | 15.22007 | 27087 ft | 418 kts | 303° |
| 2026-04-25 09:56 | 48.86519 | 15.18432 | 27360 ft | 420 kts | 303° |
| 2026-04-25 09:56 | 48.88246 | 15.14845 | 27620 ft | 421 kts | 303° |
| 2026-04-25 09:56 | 48.89973 | 15.11239 | 27893 ft | 423 kts | 303° |
| 2026-04-25 09:56 | 48.91750 | 15.07664 | 28154 ft | 425 kts | 305° |
| 2026-04-25 09:57 | 48.93614 | 15.04169 | 28363 ft | 428 kts | 306° |
| 2026-04-25 09:57 | 48.95529 | 15.00680 | 28592 ft | 430 kts | 307° |
| 2026-04-25 09:57 | 48.97455 | 14.97183 | 28863 ft | 432 kts | 307° |
| 2026-04-25 09:57 | 48.99379 | 14.93660 | 29093 ft | 433 kts | 306° |
| 2026-04-25 09:58 | 49.01292 | 14.90117 | 29489 ft | 431 kts | 306° |
| 2026-04-25 09:58 | 49.03183 | 14.86587 | 29826 ft | 431 kts | 306° |
| 2026-04-25 09:58 | 49.05072 | 14.83036 | 30086 ft | 432 kts | 306° |
| 2026-04-25 09:58 | 49.06958 | 14.79476 | 30350 ft | 431 kts | 305° |
| 2026-04-25 09:59 | 49.08840 | 14.75915 | 30596 ft | 431 kts | 305° |
| 2026-04-25 09:59 | 49.10721 | 14.72352 | 30843 ft | 431 kts | 305° |
| 2026-04-25 09:59 | 49.12603 | 14.68784 | 31001 ft | 433 kts | 305° |
| 2026-04-25 09:59 | 49.14468 | 14.65244 | 31162 ft | 434 kts | 305° |
| 2026-04-25 10:00 | 49.16381 | 14.61608 | 31453 ft | 433 kts | 305° |
| 2026-04-25 10:00 | 49.18261 | 14.58032 | 31706 ft | 432 kts | 305° |
| 2026-04-25 10:00 | 49.20141 | 14.54453 | 31935 ft | 431 kts | 305° |
| 2026-04-25 10:00 | 49.22016 | 14.50876 | 32186 ft | 431 kts | 305° |
| 2026-04-25 10:01 | 49.23864 | 14.47347 | 32399 ft | 431 kts | 305° |
| 2026-04-25 10:01 | 49.25735 | 14.43769 | 32615 ft | 430 kts | 305° |
| 2026-04-25 10:01 | 49.27603 | 14.40192 | 32855 ft | 430 kts | 305° |
| 2026-04-25 10:01 | 49.29463 | 14.36622 | 33053 ft | 429 kts | 305° |
| 2026-04-25 10:02 | 49.31323 | 14.33051 | 33353 ft | 428 kts | 305° |
| 2026-04-25 10:02 | 49.33177 | 14.29487 | 33594 ft | 427 kts | 305° |
| 2026-04-25 10:02 | 49.35029 | 14.25921 | 33756 ft | 427 kts | 305° |
| 2026-04-25 10:02 | 49.36880 | 14.22352 | 33948 ft | 427 kts | 305° |
| 2026-04-25 10:03 | 49.38728 | 14.18784 | 34140 ft | 427 kts | 305° |
| 2026-04-25 10:03 | 49.40574 | 14.15215 | 34295 ft | 427 kts | 305° |
| 2026-04-25 10:03 | 49.42418 | 14.11647 | 34453 ft | 426 kts | 305° |
| 2026-04-25 10:03 | 49.44259 | 14.08079 | 34612 ft | 426 kts | 305° |
| 2026-04-25 10:04 | 49.46097 | 14.04511 | 34767 ft | 426 kts | 305° |
| 2026-04-25 10:04 | 49.47934 | 14.00941 | 34916 ft | 425 kts | 305° |
| 2026-04-25 10:04 | 49.49768 | 13.97372 | 35033 ft | 426 kts | 305° |
| 2026-04-25 10:04 | 49.51602 | 13.93797 | 35103 ft | 427 kts | 305° |
| 2026-04-25 10:05 | 49.55280 | 13.86614 | 35384 ft | 426 kts | 305° |
| 2026-04-25 10:05 | 49.57112 | 13.83028 | 35534 ft | 426 kts | 305° |
| 2026-04-25 10:05 | 49.58944 | 13.79439 | 35697 ft | 426 kts | 305° |
| 2026-04-25 10:06 | 49.60769 | 13.75857 | 35880 ft | 424 kts | 305° |
| 2026-04-25 10:06 | 49.62589 | 13.72284 | 36050 ft | 424 kts | 305° |
| 2026-04-25 10:06 | 49.66244 | 13.65083 | 36077 ft | 429 kts | 305° |
| 2026-04-25 10:07 | 49.69940 | 13.57785 | 36083 ft | 434 kts | 305° |
| 2026-04-25 10:07 | 49.73681 | 13.50378 | 36088 ft | 440 kts | 305° |
| 2026-04-25 10:08 | 49.77463 | 13.42870 | 36091 ft | 445 kts | 305° |